Time;durP1;ratioP1;P1;durP2;ratioP2;P2;SDS_P1;SDS_P2;PMS_P1;PMS_P2;Temp;Humidity;BMP_temperature;BMP_pressure;BME280_temperature;BME280_humidity;BME280_pressure;Samples;Min_cycle;Max_cycle;Signal;HPM_P1;HPM_P2
2023/05/24 00:02:07;;;;;;;4.93;2.83;;;;;;;13.54;62.50;99244.22;4992904;28;40808;-78
2023/05/24 00:04:35;;;;;;;4.90;3.10;;;;;;;13.53;62.45;99245.16;4959707;28;40545;-81
2023/05/24 00:07:03;;;;;;;5.67;3.10;;;;;;;13.50;62.74;99248.88;4976576;28;42813;-81
2023/05/24 00:09:32;;;;;;;4.33;2.87;;;;;;;13.47;63.08;99246.47;4976295;28;42704;-79
2023/05/24 00:12:00;;;;;;;3.80;2.93;;;;;;;13.46;62.85;99243.91;4976386;28;41695;-79
2023/05/24 00:14:28;;;;;;;4.03;3.10;;;;;;;13.45;62.67;99244.84;4976271;28;42145;-81
2023/05/24 00:16:56;;;;;;;4.47;3.40;;;;;;;13.38;62.88;99240.88;4993809;28;42736;-78
2023/05/24 00:19:24;;;;;;;4.50;2.50;;;;;;;13.45;62.60;99251.03;4976438;28;41117;-82
2023/05/24 00:21:52;;;;;;;3.27;2.30;;;;;;;13.47;62.75;99245.59;4976307;28;41404;-81
2023/05/24 00:24:19;;;;;;;5.07;3.23;;;;;;;13.45;62.72;99242.19;4975109;28;41645;-78
2023/05/24 00:26:49;;;;;;;3.80;2.73;;;;;;;13.45;62.71;99248.38;4957830;28;44012;-79
2023/05/24 00:29:16;;;;;;;3.77;3.03;;;;;;;13.42;63.16;99239.72;4958687;28;42343;-77
2023/05/24 00:31:44;;;;;;;5.43;3.27;;;;;;;13.43;62.80;99241.44;4958800;28;39823;-79
2023/05/24 00:34:11;;;;;;;6.80;3.13;;;;;;;13.46;63.00;99238.56;4959070;28;41853;-79
2023/05/24 00:36:39;;;;;;;6.90;3.70;;;;;;;13.43;62.91;99236.13;4975090;28;42688;-78
2023/05/24 00:39:07;;;;;;;6.43;3.40;;;;;;;13.41;63.32;99235.38;4958655;28;42407;-81
2023/05/24 00:41:34;;;;;;;5.13;3.17;;;;;;;13.39;63.13;99231.94;4958665;28;39963;-79
2023/05/24 00:44:04;;;;;;;8.27;3.50;;;;;;;13.36;63.19;99234.81;4958796;28;40388;-80
2023/05/24 00:46:33;;;;;;;6.77;3.60;;;;;;;13.30;62.70;99231.63;4974756;28;43635;-79
2023/05/24 00:49:02;;;;;;;4.33;3.20;;;;;;;13.22;62.91;99218.00;4990573;28;41352;-80
2023/05/24 00:51:31;;;;;;;8.20;3.60;;;;;;;13.23;63.19;99230.31;4974570;28;40893;-81
2023/05/24 00:54:00;;;;;;;3.07;2.53;;;;;;;13.21;63.10;99226.94;4958315;28;40707;-79
2023/05/24 00:56:28;;;;;;;5.03;2.90;;;;;;;13.22;63.03;99227.78;4974763;28;44171;-80
2023/05/24 00:58:56;;;;;;;5.27;2.97;;;;;;;13.16;63.29;99213.09;4958992;28;42622;-78
2023/05/24 01:01:25;;;;;;;4.67;3.20;;;;;;;13.19;63.19;99210.22;4975383;28;40672;-78
2023/05/24 01:03:54;;;;;;;9.03;4.07;;;;;;;13.16;63.13;99212.22;4974147;28;40435;-80
2023/05/24 01:06:23;;;;;;;7.23;3.80;;;;;;;13.06;62.91;99198.69;4959432;28;43169;-81
2023/05/24 01:09:08;;;;;;;6.73;3.10;;;;;;;13.16;63.01;99215.75;4959407;28;42241;-78
2023/05/24 01:11:50;;;;;;;6.17;3.20;;;;;;;13.17;62.88;99220.09;4972387;28;40899;-77
2023/05/24 01:14:26;;;;;;;5.27;3.27;;;;;;;13.15;63.15;99216.69;4959424;28;41688;-78
2023/05/24 01:17:01;;;;;;;5.17;4.10;;;;;;;13.15;63.09;99219.34;4988194;28;42950;-78
2023/05/24 01:19:52;;;;;;;6.30;3.47;;;;;;;13.12;63.43;99219.53;4958403;28;41071;-79
2023/05/24 01:22:54;;;;;;;6.47;3.20;;;;;;;13.08;63.27;99215.38;4988749;28;41208;-77
2023/05/24 01:25:32;;;;;;;6.17;3.23;;;;;;;13.03;63.51;99211.31;4969522;28;41732;-80
2023/05/24 01:28:04;;;;;;;5.77;3.47;;;;;;;13.04;63.25;99215.69;4957602;28;43242;-80
2023/05/24 01:30:32;;;;;;;4.63;3.07;;;;;;;12.97;63.73;99212.59;4973843;28;41473;-78
2023/05/24 01:33:00;;;;;;;7.77;3.57;;;;;;;12.96;63.61;99216.19;4957784;28;40198;-77
2023/05/24 01:35:28;;;;;;;6.83;3.67;;;;;;;12.95;63.67;99219.81;4974337;28;41480;-78
2023/05/24 01:37:55;;;;;;;4.50;3.30;;;;;;;12.91;63.44;99218.31;4973671;28;42020;-77
2023/05/24 01:40:23;;;;;;;4.20;3.27;;;;;;;12.94;63.50;99218.09;4973914;28;43791;-78
2023/05/24 01:42:59;;;;;;;5.30;2.70;;;;;;;12.87;63.46;99214.13;4973970;28;40142;-79
2023/05/24 01:45:39;;;;;;;5.63;3.30;;;;;;;12.94;63.32;99226.09;4958137;28;42041;-79
2023/05/24 01:48:17;;;;;;;4.47;3.03;;;;;;;12.94;63.19;99223.44;4973845;28;43147;-79
2023/05/24 01:50:49;;;;;;;5.00;3.17;;;;;;;12.82;63.39;99206.47;4972059;28;43228;-78
2023/05/24 01:53:20;;;;;;;7.93;3.50;;;;;;;12.89;63.85;99230.84;4971948;28;40767;-79
2023/05/24 01:55:49;;;;;;;6.60;3.20;;;;;;;12.81;63.50;99210.09;4957656;28;42707;-80
2023/05/24 01:58:19;;;;;;;5.30;3.03;;;;;;;12.90;63.52;99227.22;4958228;28;42113;-77
2023/05/24 02:00:48;;;;;;;3.83;3.00;;;;;;;12.89;63.42;99230.84;4974728;28;42273;-78
2023/05/24 02:03:17;;;;;;;6.53;3.10;;;;;;;12.87;63.64;99224.75;4958640;28;39827;-79
2023/05/24 02:05:46;;;;;;;8.37;3.10;;;;;;;12.82;63.19;99225.09;4974886;28;41753;-77
2023/05/24 02:08:14;;;;;;;5.67;3.30;;;;;;;12.83;63.16;99231.25;4958345;28;41427;-80
2023/05/24 02:10:42;;;;;;;8.70;3.57;;;;;;;12.80;63.77;99226.13;4974639;28;42420;-78
2023/05/24 02:13:09;;;;;;;6.70;3.17;;;;;;;12.65;63.71;99208.53;4958328;28;41235;-77
2023/05/24 02:15:40;;;;;;;8.53;3.53;;;;;;;12.75;63.81;99222.91;4994880;28;41757;-77
2023/05/24 02:18:17;;;;;;;7.97;3.27;;;;;;;12.72;63.85;99224.00;4961735;28;43377;-79
2023/05/24 02:20:45;;;;;;;7.27;3.43;;;;;;;12.68;63.95;99230.44;4962052;28;41404;-77
2023/05/24 02:23:13;;;;;;;5.23;3.40;;;;;;;12.61;64.08;99215.00;4961458;28;41391;-78
2023/05/24 02:25:41;;;;;;;7.20;3.50;;;;;;;12.61;64.02;99234.44;4977803;28;41757;-81
2023/05/24 02:28:08;;;;;;;5.80;3.90;;;;;;;12.59;64.16;99234.56;4975768;28;42720;-77
2023/05/24 02:30:37;;;;;;;5.10;3.00;;;;;;;12.58;63.82;99237.31;4960430;28;41790;-79
2023/05/24 02:33:05;;;;;;;5.63;3.73;;;;;;;12.59;63.99;99231.06;4994025;28;40911;-81
2023/05/24 02:35:34;;;;;;;5.57;3.23;;;;;;;12.56;64.32;99226.78;4976570;28;43340;-81
2023/05/24 02:38:05;;;;;;;6.83;3.13;;;;;;;12.55;64.35;99230.38;4976774;28;43077;-79
2023/05/24 02:40:33;;;;;;;8.83;2.83;;;;;;;12.54;64.12;99234.00;4977034;28;42662;-80
2023/05/24 02:43:01;;;;;;;5.83;3.77;;;;;;;12.52;64.21;99225.25;4976488;28;41924;-80
2023/05/24 02:45:28;;;;;;;5.70;3.50;;;;;;;12.52;64.70;99224.41;4960592;28;40669;-81
2023/05/24 02:47:56;;;;;;;5.83;3.30;;;;;;;12.49;64.41;99228.13;4976318;28;41795;-78
2023/05/24 02:50:24;;;;;;;6.73;3.27;;;;;;;12.37;63.99;99212.09;4993941;28;42084;-80
2023/05/24 02:52:53;;;;;;;6.73;3.20;;;;;;;12.48;64.15;99230.91;4976576;28;41718;-78
2023/05/24 02:55:21;;;;;;;6.20;3.07;;;;;;;12.47;64.17;99238.00;4960512;28;42011;-79
2023/05/24 02:57:48;;;;;;;5.63;3.13;;;;;;;12.46;64.11;99228.34;4976623;28;42704;-79
2023/05/24 03:00:18;;;;;;;8.03;3.77;;;;;;;12.40;64.49;99228.72;4961438;28;42329;-77
2023/05/24 03:02:49;;;;;;;5.27;3.13;;;;;;;12.38;64.23;99224.44;4961133;28;39929;-78
2023/05/24 03:05:17;;;;;;;8.17;3.40;;;;;;;12.38;64.42;99222.63;4961079;28;41545;-78
2023/05/24 03:07:45;;;;;;;4.57;3.20;;;;;;;12.35;64.68;99225.50;4960971;28;41817;-80
2023/05/24 03:10:14;;;;;;;8.00;3.83;;;;;;;12.32;64.81;99231.00;4977373;28;41332;-81
2023/05/24 03:12:42;;;;;;;7.40;3.93;;;;;;;12.28;64.47;99224.19;4977023;28;39964;-78
2023/05/24 03:15:10;;;;;;;9.93;4.90;;;;;;;12.25;64.43;99227.03;4994709;28;41469;-80
2023/05/24 03:17:38;;;;;;;5.27;3.13;;;;;;;12.23;64.53;99236.91;4960924;28;41586;-79
2023/05/24 03:20:10;;;;;;;8.27;3.43;;;;;;;12.20;64.68;99231.78;4977212;28;43106;-79
2023/05/24 03:22:38;;;;;;;6.60;3.40;;;;;;;12.19;64.62;99235.41;4974029;28;42250;-80
2023/05/24 03:25:07;;;;;;;5.33;3.17;;;;;;;12.21;64.58;99238.81;4976229;28;41584;-80
2023/05/24 03:27:37;;;;;;;5.73;3.57;;;;;;;12.19;64.64;99230.94;4959033;28;42085;-79
2023/05/24 03:30:05;;;;;;;7.17;2.97;;;;;;;12.18;64.69;99239.00;4959944;28;42267;-80
2023/05/24 03:32:38;;;;;;;5.13;3.13;;;;;;;12.20;64.15;99234.44;4959554;28;40962;-79
2023/05/24 03:35:07;;;;;;;5.37;3.40;;;;;;;12.20;64.49;99237.09;4959763;28;40637;-77
2023/05/24 03:37:34;;;;;;;6.53;3.10;;;;;;;12.19;64.50;99241.56;4975974;28;42441;-78
2023/05/24 03:40:03;;;;;;;5.67;2.87;;;;;;;12.19;64.15;99238.91;4992465;28;42409;-79
2023/05/24 03:42:47;;;;;;;4.80;2.80;;;;;;;12.12;64.08;99218.13;4975475;28;41904;-80
2023/05/24 03:45:15;;;;;;;5.73;2.93;;;;;;;12.08;64.05;99216.63;4959669;28;41435;-79
2023/05/24 03:47:43;;;;;;;5.93;2.93;;;;;;;12.20;64.10;99237.97;4959195;28;41811;-77
2023/05/24 03:50:11;;;;;;;4.37;2.73;;;;;;;12.15;63.87;99226.75;4975588;28;42382;-81
2023/05/24 03:52:38;;;;;;;5.70;2.80;;;;;;;12.22;64.44;99240.53;4975661;28;40924;-80
2023/05/24 03:55:06;;;;;;;7.70;3.10;;;;;;;12.24;64.43;99235.94;4993082;28;41795;-78
2023/05/24 03:57:34;;;;;;;4.63;2.80;;;;;;;12.15;64.21;99223.25;4992996;28;42705;-80
2023/05/24 04:00:05;;;;;;;9.70;3.53;;;;;;;12.26;64.18;99238.50;4976793;28;42275;-79
2023/05/24 04:02:41;;;;;;;7.43;3.40;;;;;;;12.26;63.94;99242.00;4976403;28;40180;-78
2023/05/24 04:05:09;;;;;;;8.10;3.60;;;;;;;12.24;63.96;99249.22;4993765;28;42946;-78
2023/05/24 04:07:39;;;;;;;10.40;4.03;;;;;;;12.26;64.44;99247.31;4976049;28;42546;-80
2023/05/24 04:10:08;;;;;;;7.30;3.13;;;;;;;12.27;64.21;99249.03;4976524;28;42367;-80
2023/05/24 04:12:35;;;;;;;6.33;2.53;;;;;;;12.31;64.03;99250.56;4976441;28;40671;-78
2023/05/24 04:15:06;;;;;;;8.83;4.80;;;;;;;12.34;63.77;99250.38;4976460;28;42102;-79
2023/05/24 04:17:34;;;;;;;5.93;3.40;;;;;;;12.37;63.74;99247.50;4959977;28;41942;-77
2023/05/24 04:20:02;;;;;;;6.40;3.20;;;;;;;12.36;63.97;99245.81;4976204;28;42957;-81
2023/05/24 04:22:30;;;;;;;6.53;2.83;;;;;;;12.39;63.91;99242.94;4976421;28;41855;-79
2023/05/24 04:24:58;;;;;;;8.97;3.70;;;;;;;12.36;63.50;99247.63;4960065;28;40761;-80
2023/05/24 04:27:26;;;;;;;8.30;4.27;;;;;;;12.42;63.44;99236.59;4975997;28;43699;-78
2023/05/24 04:29:54;;;;;;;7.70;3.17;;;;;;;12.40;64.10;99235.81;4975942;28;42391;-78
2023/05/24 04:32:23;;;;;;;4.47;3.07;;;;;;;12.43;63.54;99249.78;4976101;28;40757;-78
2023/05/24 04:34:53;;;;;;;5.87;3.00;;;;;;;12.47;63.63;99245.97;4975891;28;41602;-78
2023/05/24 04:37:20;;;;;;;6.83;3.20;;;;;;;12.47;63.07;99239.81;4976108;28;42812;-78
2023/05/24 04:39:48;;;;;;;8.97;3.40;;;;;;;12.51;63.00;99257.25;4959441;28;43750;-79
2023/05/24 04:42:16;;;;;;;4.47;2.77;;;;;;;12.57;63.29;99243.56;4975615;28;40914;-80
2023/05/24 04:44:44;;;;;;;6.33;2.80;;;;;;;12.63;63.62;99252.94;4992951;28;41978;-79
2023/05/24 04:47:12;;;;;;;6.10;2.97;;;;;;;12.58;63.44;99240.81;4959462;28;42033;-80
2023/05/24 04:49:41;;;;;;;6.40;2.77;;;;;;;12.69;62.93;99261.38;4958834;28;41187;-79
2023/05/24 04:52:08;;;;;;;8.00;3.00;;;;;;;12.72;62.92;99257.69;4990188;28;40881;-81
2023/05/24 04:54:36;;;;;;;6.07;3.20;;;;;;;12.78;62.92;99262.59;4975661;28;41803;-81
2023/05/24 04:57:04;;;;;;;7.23;3.23;;;;;;;12.84;62.83;99259.53;4958887;28;41556;-78
2023/05/24 04:59:31;;;;;;;4.63;2.77;;;;;;;12.92;62.56;99259.88;4975547;28;42438;-81
2023/05/24 05:01:59;;;;;;;6.10;3.17;;;;;;;12.99;62.46;99265.63;4959413;28;40763;-78
2023/05/24 05:04:26;;;;;;;7.17;3.20;;;;;;;13.06;62.33;99275.78;4959235;28;42944;-80
2023/05/24 05:06:56;;;;;;;9.23;3.27;;;;;;;13.12;62.54;99275.38;4975571;28;42498;-80
2023/05/24 05:09:23;;;;;;;6.30;3.00;;;;;;;13.19;62.25;99276.72;4975035;28;41250;-79
2023/05/24 05:11:51;;;;;;;6.50;3.07;;;;;;;13.27;61.95;99282.38;4975591;28;41328;-78
2023/05/24 05:14:18;;;;;;;7.33;3.53;;;;;;;13.33;62.21;99278.47;4975311;28;40685;-78
2023/05/24 05:16:46;;;;;;;6.37;3.00;;;;;;;13.35;61.88;99276.56;4957710;28;41825;-81
2023/05/24 05:19:14;;;;;;;6.10;2.60;;;;;;;13.53;61.71;99290.41;4974042;28;42683;-79
2023/05/24 05:21:42;;;;;;;7.33;3.93;;;;;;;13.60;61.47;99291.69;4973960;28;39572;-79
2023/05/24 05:24:11;;;;;;;4.93;3.27;;;;;;;13.71;61.06;99309.59;4960146;28;40569;-80
2023/05/24 05:26:40;;;;;;;6.47;3.27;;;;;;;13.81;60.67;99310.69;4939994;28;43641;-79
2023/05/24 05:29:08;;;;;;;9.63;3.60;;;;;;;13.82;60.48;99291.09;4957640;28;42435;-79
2023/05/24 05:31:35;;;;;;;6.23;2.97;;;;;;;14.05;60.61;99311.66;4991060;28;41883;-77
2023/05/24 05:34:03;;;;;;;8.23;3.20;;;;;;;14.18;59.70;99316.97;4987547;28;41772;-79
2023/05/24 05:36:31;;;;;;;7.27;3.23;;;;;;;14.23;59.69;99317.50;4957614;28;41535;-83
2023/05/24 05:38:58;;;;;;;9.23;3.37;;;;;;;14.28;58.92;99320.69;4991143;28;42732;-84
2023/05/24 05:41:27;;;;;;;8.30;3.33;;;;;;;14.33;58.84;99321.25;4957398;28;41290;-77
2023/05/24 05:43:55;;;;;;;6.47;3.37;;;;;;;14.36;58.32;99329.84;4973219;28;40872;-77
2023/05/24 05:46:22;;;;;;;6.57;3.10;;;;;;;14.42;58.35;99328.59;4974904;28;43702;-82
2023/05/24 05:48:50;;;;;;;5.53;2.80;;;;;;;14.52;58.08;99334.97;4963217;28;41390;-83
2023/05/24 05:51:18;;;;;;;5.10;2.70;;;;;;;14.63;57.92;99336.88;4967118;28;40305;-85
2023/05/24 05:53:45;;;;;;;5.73;3.10;;;;;;;14.74;57.42;99343.16;4984670;28;41683;-81
2023/05/24 05:56:13;;;;;;;8.63;3.07;;;;;;;14.88;56.96;99335.97;4964866;28;41536;-79
2023/05/24 05:58:42;;;;;;;12.30;3.70;;;;;;;14.92;56.22;99340.97;4998259;28;42326;-79
2023/05/24 06:01:10;;;;;;;8.07;3.30;;;;;;;14.99;56.29;99336.88;4961501;28;41315;-82
2023/05/24 06:03:37;;;;;;;7.57;3.30;;;;;;;15.06;55.13;99350.66;4962120;28;40513;-82
2023/05/24 06:06:05;;;;;;;7.10;3.73;;;;;;;14.97;54.48;99327.28;4964354;28;42135;-79
2023/05/24 06:08:33;;;;;;;6.30;3.07;;;;;;;15.32;54.41;99346.91;4981329;28;42267;-83
2023/05/24 06:11:01;;;;;;;11.00;3.20;;;;;;;15.46;51.07;99370.75;4998195;28;41103;-74
2023/05/24 06:13:30;;;;;;;5.93;2.87;;;;;;;15.56;50.95;99375.47;4981073;28;42058;-82
2023/05/24 06:15:59;;;;;;;9.37;3.13;;;;;;;15.70;50.86;99369.94;4964424;28;42703;-80
2023/05/24 06:18:29;;;;;;;5.87;2.40;;;;;;;15.94;49.80;99375.25;4998240;28;42432;-78
2023/05/24 06:20:56;;;;;;;11.90;2.70;;;;;;;16.16;50.25;99378.81;4964578;28;41373;-79
2023/05/24 06:23:24;;;;;;;9.20;3.20;;;;;;;16.30;49.33;99367.06;4962882;28;42176;-78
2023/05/24 06:25:52;;;;;;;9.93;3.20;;;;;;;16.45;49.27;99384.53;4979375;28;41704;-78
2023/05/24 06:28:19;;;;;;;8.23;2.80;;;;;;;16.65;48.30;99379.50;4979092;28;43420;-80
2023/05/24 06:30:48;;;;;;;8.50;3.13;;;;;;;16.71;46.67;99395.06;4963745;28;40319;-78
2023/05/24 06:33:17;;;;;;;9.83;3.10;;;;;;;16.73;48.04;99391.28;4963251;28;40810;-80
2023/05/24 06:35:45;;;;;;;10.20;3.50;;;;;;;16.71;47.27;99395.06;4997012;28;42501;-84
2023/05/24 06:38:13;;;;;;;7.63;2.57;;;;;;;16.61;46.78;99384.19;4979751;28;42496;-86
2023/05/24 06:40:40;;;;;;;6.40;2.40;;;;;;;16.62;46.66;99403.78;4963736;28;40992;-83
2023/05/24 06:43:08;;;;;;;7.53;2.40;;;;;;;16.45;47.90;99399.75;4963532;28;41657;-81
2023/05/24 06:45:36;;;;;;;6.40;2.40;;;;;;;16.26;47.87;99383.44;4964039;28;41833;-82
2023/05/24 06:48:05;;;;;;;9.47;3.00;;;;;;;16.59;48.25;99394.16;4979318;28;42073;-77
2023/05/24 06:50:36;;;;;;;10.10;2.93;;;;;;;16.80;48.01;99392.53;4979636;28;40890;-81
2023/05/24 06:53:04;;;;;;;6.20;2.33;;;;;;;16.92;46.07;99406.75;4979465;28;41645;-78
2023/05/24 06:55:31;;;;;;;5.90;2.50;;;;;;;16.96;46.70;99399.31;4963457;28;42513;-81
2023/05/24 06:57:59;;;;;;;5.87;2.47;;;;;;;17.27;44.85;99422.63;4979475;28;42508;-82
2023/05/24 07:00:27;;;;;;;8.53;3.33;;;;;;;17.49;45.29;99401.16;4980230;28;41993;-84
2023/05/24 07:02:55;;;;;;;5.83;2.60;;;;;;;17.78;43.51;99422.06;4976961;28;41302;-82
2023/05/24 07:05:22;;;;;;;5.87;2.17;;;;;;;18.00;43.35;99438.03;4976703;28;41676;-74
2023/05/24 07:07:52;;;;;;;6.13;2.67;;;;;;;18.04;41.85;99447.53;4976561;28;42456;-80
2023/05/24 07:10:20;;;;;;;4.97;2.10;;;;;;;18.02;42.19;99452.16;4976840;28;40859;-80
2023/05/24 07:12:47;;;;;;;7.40;2.43;;;;;;;17.95;40.98;99469.72;4960660;28;42059;-80
2023/05/24 07:15:15;;;;;;;7.67;2.13;;;;;;;17.75;41.36;99454.44;4976971;28;42852;-80
2023/05/24 07:17:43;;;;;;;5.23;2.33;;;;;;;17.78;40.72;99459.56;4976493;28;41755;-79
2023/05/24 07:20:12;;;;;;;6.63;2.23;;;;;;;17.71;41.16;99463.69;4977030;28;40995;-77
2023/05/24 07:22:40;;;;;;;7.37;2.17;;;;;;;17.78;40.71;99454.19;4976819;28;41680;-80
2023/05/24 07:25:10;;;;;;;6.80;2.50;;;;;;;18.22;41.18;99464.72;4960898;28;41873;-78
2023/05/24 07:27:38;;;;;;;6.73;2.53;;;;;;;18.74;40.40;99446.91;4958844;28;41504;-77
2023/05/24 07:30:07;;;;;;;7.47;2.30;;;;;;;19.09;39.75;99432.22;4993318;28;40749;-76
2023/05/24 07:32:35;;;;;;;7.60;3.00;;;;;;;19.64;39.53;99469.34;4975474;28;41912;-77
2023/05/24 07:35:02;;;;;;;7.13;2.30;;;;;;;19.66;39.17;99470.00;4975870;28;42401;-78
2023/05/24 07:37:30;;;;;;;7.67;2.30;;;;;;;20.01;40.01;99463.28;4975441;28;42372;-81
2023/05/24 07:39:58;;;;;;;5.30;2.20;;;;;;;20.27;37.69;99475.19;4975350;28;40740;-82
2023/05/24 07:42:28;;;;;;;6.47;2.40;;;;;;;20.42;37.12;99481.84;4975205;28;41146;-77
2023/05/24 07:44:55;;;;;;;6.80;2.70;;;;;;;20.47;37.22;99484.13;4959124;28;41715;-79
2023/05/24 07:47:23;;;;;;;7.23;2.20;;;;;;;20.52;36.94;99472.94;4992709;28;42503;-80
2023/05/24 07:49:51;;;;;;;6.43;2.57;;;;;;;20.88;37.92;99469.44;4958853;28;39616;-79
2023/05/24 07:52:19;;;;;;;5.07;2.27;;;;;;;21.07;36.06;99474.75;4992605;28;42514;-79
2023/05/24 07:54:46;;;;;;;5.93;2.00;;;;;;;21.05;35.87;99484.81;4959371;28;43196;-78
2023/05/24 07:57:14;;;;;;;5.80;2.03;;;;;;;21.36;36.03;99474.69;4974777;28;41131;-76
2023/05/24 07:59:43;;;;;;;9.57;2.43;;;;;;;21.55;35.70;99495.28;4976478;28;41927;-82
2023/05/24 08:02:12;;;;;;;6.57;2.43;;;;;;;21.67;35.36;99491.38;4960121;28;40785;-88
2023/05/24 08:04:40;;;;;;;6.23;2.47;;;;;;;21.79;35.48;99465.91;4976591;28;42865;-81
2023/05/24 08:07:08;;;;;;;4.97;2.43;;;;;;;22.07;34.42;99504.50;4975711;28;41128;-78
2023/05/24 08:09:37;;;;;;;5.83;2.30;;;;;;;21.99;33.95;99487.41;4992071;28;41909;-80
2023/05/24 08:12:06;;;;;;;7.13;2.27;;;;;;;22.11;35.32;99487.00;4964753;28;41884;-80
2023/05/24 08:14:34;;;;;;;8.30;2.60;;;;;;;22.26;34.45;99479.19;4957094;28;41594;-84
2023/05/24 08:17:03;;;;;;;6.77;2.87;;;;;;;22.70;34.85;99487.34;4984634;28;42227;-83
2023/05/24 08:19:34;;;;;;;5.33;2.10;;;;;;;23.26;33.18;99503.94;4979894;28;39912;-80
2023/05/24 08:22:04;;;;;;;6.43;2.10;;;;;;;23.54;33.23;99495.66;4990426;28;41786;-80
2023/05/24 08:24:32;;;;;;;6.63;2.50;;;;;;;24.00;33.71;99500.53;4975756;28;42893;-77
2023/05/24 08:26:59;;;;;;;8.43;2.27;;;;;;;25.29;31.46;99508.84;4992437;28;41828;-84
2023/05/24 08:29:27;;;;;;;6.13;2.90;;;;;;;25.83;30.33;99517.16;4992321;28;41104;-85
2023/05/24 08:31:55;;;;;;;7.87;2.70;;;;;;;25.82;29.23;99527.16;4971452;28;40722;-83
2023/05/24 08:34:24;;;;;;;10.13;3.53;;;;;;;25.35;29.62;99527.97;4972174;28;43764;-82
2023/05/24 08:36:52;;;;;;;5.90;2.50;;;;;;;25.13;31.04;99515.16;4975144;28;43212;-85
2023/05/24 08:39:20;;;;;;;7.43;2.47;;;;;;;25.24;30.67;99506.66;4959144;28;40306;-84
2023/05/24 08:41:48;;;;;;;8.47;3.00;;;;;;;25.24;29.79;99522.91;4950188;28;41470;-83
2023/05/24 08:44:16;;;;;;;6.90;2.50;;;;;;;24.99;30.10;99513.97;4955507;28;42982;-84
2023/05/24 08:46:44;;;;;;;7.90;2.83;;;;;;;24.86;30.02;99496.53;4963663;28;42729;-82
2023/05/24 08:49:13;;;;;;;7.27;2.40;;;;;;;24.84;31.01;99487.75;4974805;28;41925;-81
2023/05/24 08:51:44;;;;;;;5.87;2.40;;;;;;;24.73;31.06;99474.56;4966574;28;41670;-77
2023/05/24 08:54:13;;;;;;;6.70;1.87;;;;;;;24.82;31.53;99514.16;4939493;28;42096;-79
2023/05/24 08:56:41;;;;;;;7.77;2.40;;;;;;;25.09;30.40;99507.56;4979841;28;42625;-78
2023/05/24 08:59:09;;;;;;;5.57;2.40;;;;;;;25.08;30.28;99509.41;4992941;28;42085;-83
2023/05/24 09:01:40;;;;;;;6.63;2.30;;;;;;;25.33;30.08;99511.06;4992724;28;40836;-80
2023/05/24 09:04:09;;;;;;;6.97;2.30;;;;;;;25.39;30.47;99507.63;4975254;28;42925;-81
2023/05/24 09:06:37;;;;;;;7.97;2.50;;;;;;;25.77;31.20;99491.56;4976216;28;41227;-80
2023/05/24 09:09:09;;;;;;;7.47;2.60;;;;;;;26.40;29.92;99494.06;4959590;28;41278;-83
2023/05/24 09:11:38;;;;;;;5.17;2.20;;;;;;;26.92;29.85;99487.00;4973249;28;40731;-79
2023/05/24 09:14:06;;;;;;;8.13;2.30;;;;;;;27.11;26.82;99510.94;4957741;28;42999;-78
2023/05/24 09:16:35;;;;;;;5.93;2.40;;;;;;;27.07;29.38;99488.75;4958015;28;41153;-80
2023/05/24 09:19:03;;;;;;;5.90;2.50;;;;;;;27.42;28.49;99500.75;4958109;28;41131;-79
2023/05/24 09:21:31;;;;;;;5.30;2.00;;;;;;;27.84;28.79;99494.63;4970879;28;42774;-79
2023/05/24 09:24:00;;;;;;;5.23;2.10;;;;;;;28.05;28.02;99502.00;4969736;28;43816;-79
2023/05/24 09:26:30;;;;;;;3.33;1.97;;;;;;;28.16;27.69;99506.94;4970305;28;43239;-77
2023/05/24 09:28:58;;;;;;;6.43;2.40;;;;;;;28.30;27.47;99504.41;4954963;28;41299;-79
2023/05/24 09:31:32;;;;;;;4.17;2.17;;;;;;;28.18;25.78;99523.13;4977302;28;41710;-80
2023/05/24 09:34:00;;;;;;;5.90;2.63;;;;;;;28.06;27.18;99498.25;4990447;28;44308;-79
2023/05/24 09:36:29;;;;;;;6.47;2.67;;;;;;;27.89;26.59;99507.66;4990258;28;42298;-78
2023/05/24 09:39:08;;;;;;;5.37;2.37;;;;;;;27.79;26.25;99515.28;4974200;28;40577;-79
2023/05/24 09:41:38;;;;;;;6.17;2.43;;;;;;;27.62;27.37;99505.63;4982935;28;41055;-78
2023/05/24 09:44:06;;;;;;;4.53;2.53;;;;;;;27.46;26.79;99512.94;4954088;28;41988;-79
2023/05/24 09:46:38;;;;;;;6.13;2.30;;;;;;;27.29;26.33;99511.44;4960605;28;40849;-81
2023/05/24 09:49:07;;;;;;;4.50;2.10;;;;;;;26.99;26.40;99510.56;4990047;28;40904;-84
2023/05/24 09:51:38;;;;;;;3.63;1.80;;;;;;;26.89;27.11;99488.19;4953869;28;41254;-83
2023/05/24 09:54:06;;;;;;;4.80;1.97;;;;;;;26.55;27.92;99463.41;4955050;28;41948;-82
2023/05/24 09:56:34;;;;;;;4.83;1.80;;;;;;;26.51;27.43;99506.38;4960847;28;43469;-78
2023/05/24 09:59:08;;;;;;;4.07;1.97;;;;;;;26.22;27.75;99503.50;4974547;28;40874;-82
2023/05/24 10:01:36;;;;;;;5.57;2.00;;;;;;;25.89;28.21;99501.00;4971672;28;42746;-78
2023/05/24 10:04:05;;;;;;;4.37;1.97;;;;;;;25.59;29.05;99497.19;4957983;28;41370;-79
2023/05/24 10:06:36;;;;;;;6.77;2.33;;;;;;;25.22;28.58;99491.59;4974126;28;42829;-83
2023/05/24 10:09:06;;;;;;;6.57;2.07;;;;;;;24.77;28.37;99500.28;4990598;28;40800;-77
2023/05/24 10:11:35;;;;;;;3.47;1.70;;;;;;;24.37;28.77;99507.38;4973042;28;40708;-84
2023/05/24 10:14:05;;;;;;;3.37;1.87;;;;;;;24.14;30.53;99493.63;4973301;28;41879;-75
2023/05/24 10:16:36;;;;;;;3.00;1.77;;;;;;;23.93;31.14;99488.69;4956699;28;41423;-78
2023/05/24 10:19:04;;;;;;;5.80;2.47;;;;;;;23.72;31.30;99485.59;4973077;28;39890;-81
2023/05/24 10:21:36;;;;;;;8.43;2.00;;;;;;;23.55;31.00;99490.06;4969501;28;42118;-79
2023/05/24 10:24:06;;;;;;;7.60;2.00;;;;;;;23.41;30.60;99503.31;4953345;28;43151;-80
2023/05/24 10:26:37;;;;;;;5.17;2.20;;;;;;;23.29;31.61;99479.28;4976589;28;43221;-79
2023/05/24 10:29:11;;;;;;;5.13;2.03;;;;;;;23.33;32.11;99485.22;4989351;28;40556;-77
2023/05/24 10:31:41;;;;;;;6.63;2.20;;;;;;;23.31;31.87;99475.56;4956543;28;41169;-83
2023/05/24 10:34:10;;;;;;;3.77;1.73;;;;;;;23.67;31.68;99487.91;4990823;28;42988;-81
2023/05/24 10:36:39;;;;;;;5.27;2.20;;;;;;;23.96;31.07;99491.06;4992658;28;42560;-77
2023/05/24 10:39:11;;;;;;;6.43;1.87;;;;;;;24.08;30.98;99485.31;4975826;28;39795;-77
2023/05/24 10:41:42;;;;;;;5.17;2.20;;;;;;;23.91;31.63;99451.97;4959193;28;40409;-77
2023/05/24 10:44:15;;;;;;;6.83;2.43;;;;;;;24.00;31.30;99489.69;4975548;28;41820;-76
2023/05/24 10:47:12;;;;;;;5.17;2.07;;;;;;;23.92;31.75;99486.97;4972528;28;41550;-77
2023/05/24 10:49:50;;;;;;;5.60;2.30;;;;;;;23.93;32.22;99477.84;4939819;28;40111;-77
2023/05/24 10:52:18;;;;;;;5.57;2.20;;;;;;;23.93;30.70;99498.66;4952174;28;41745;-77
2023/05/24 10:55:06;;;;;;;5.37;1.93;;;;;;;23.86;30.25;99494.94;4943309;28;42395;-77
2023/05/24 10:57:35;;;;;;;4.37;2.03;;;;;;;23.89;29.79;99505.41;4972614;28;43392;-80
2023/05/24 11:00:34;;;;;;;4.00;1.80;;;;;;;23.73;29.88;99503.50;4977063;28;40539;-79
2023/05/24 11:03:08;;;;;;;6.23;2.60;;;;;;;23.44;31.09;99501.16;4915300;29;41313;-76
2023/05/24 11:05:49;;;;;;;4.83;2.43;;;;;;;23.18;31.08;99489.53;4966412;28;42987;-82
2023/05/24 11:08:23;;;;;;;6.33;2.53;;;;;;;22.80;31.46;99477.31;4957653;28;41564;-81
2023/05/24 11:10:51;;;;;;;6.90;2.23;;;;;;;22.75;33.44;99468.81;4958434;28;41419;-74
2023/05/24 11:13:33;;;;;;;4.93;2.23;;;;;;;22.69;33.89;99459.47;4975557;28;40809;-81
2023/05/24 11:16:03;;;;;;;4.63;2.27;;;;;;;22.64;34.29;99471.75;4959546;28;41361;-80
2023/05/24 11:19:02;;;;;;;4.70;1.90;;;;;;;22.38;34.10;99432.06;4977201;28;42911;-79
2023/05/24 11:21:49;;;;;;;4.80;2.47;;;;;;;22.39;33.93;99435.63;4990494;28;41685;-80
2023/05/24 11:24:18;;;;;;;4.93;1.70;;;;;;;22.45;33.45;99468.25;4960340;28;40681;-80
2023/05/24 11:26:47;;;;;;;4.53;2.00;;;;;;;22.32;34.18;99462.41;4975809;28;42553;-79
2023/05/24 11:29:19;;;;;;;6.47;2.80;;;;;;;22.17;34.16;99447.75;4959660;28;41160;-78
2023/05/24 11:31:49;;;;;;;4.47;2.07;;;;;;;22.19;32.89;99468.19;4974585;28;39985;-80
2023/05/24 11:34:19;;;;;;;4.63;2.27;;;;;;;22.33;34.07;99469.50;4975460;28;42875;-78
2023/05/24 11:36:47;;;;;;;3.43;2.20;;;;;;;22.66;33.58;99450.84;4975263;28;42689;-83
2023/05/24 11:39:15;;;;;;;5.50;2.83;;;;;;;23.07;31.45;99474.44;4975304;28;42592;-81
2023/05/24 11:41:43;;;;;;;5.27;2.13;;;;;;;23.57;32.75;99471.00;4958950;28;39964;-80
2023/05/24 11:44:12;;;;;;;5.77;2.60;;;;;;;23.82;33.09;99459.22;4975549;28;41019;-78
2023/05/24 11:46:43;;;;;;;7.60;2.70;;;;;;;24.19;33.37;99439.00;4957813;28;42010;-76